Airfield :
LOGIN :

Register | Disclaimer

   EN    FR    IT 

 










Legend :    VFR   Marginal VFR   IFR   Intensive IFR   Very Intensive IFR
Visi :
Ceiling :
>= 8 km
>= 3000ft
5 to 8 km
1000 to 3000 ft
1500m to 5 km
500 to 1000 ft
800 to 1500m
200 to 500 ft
< 800m
< 200 ft
Symbols :   Thunderstorms  Fog  Heavy snow  Heavy precipitations  Wind > 20 kt
SIGMETs :     Misc.  Thunderstorms  Icing  Turbulence  Mountain Waves  Volcanic Ashes






- Airport Elevation : 463 ft
- IATA code : QAS


DAOI - Chlef Int.

CURRENT METAR :
  • 010500Z 00000KT CAVOK 19/17 Q1013

EXPIRED METARs :
  • 010400Z 24003KT CAVOK 19/17 Q1013
  • 010300Z 00000KT 9999 FEW026 19/17 Q1012

TAF TAF DAOI
Valid from the 01 at 00:00 until the 02 at 00:00 UTC


302300Z 0100/0124 VRB02KT 9999 FEW026
BECMG 0101/0103 8000 FEW015 BKN023
PROB40
TEMPO 0104/0108 3000 BR BKN013
BECMG 0109/0112 24014KT 9999 NSC



MET'MAP, your aeronautical weather chart ! - Copyright ORBIFLY December 2007 - Disclaimer

ORBIFLY MET'MAP TEAM :

Programming & Development : Alexandra Zaïnal
Concept & original design : Baudouin d'Aumeries
Assistance for programming : Marc-Olivier Méhu
Technical & hardware support : Manuel Goepfert

Contact : metmap@orbifly.com




SOURCES & CREDITS :

   NOAA